sensor_id;sensor_type;location;lat;lon;timestamp;temperature;humidity
16140;DHT22;8175;49.326;12.690;2023-04-25T00:01:05;4.70;99.90
16140;DHT22;8175;49.326;12.690;2023-04-25T00:03:31;4.90;99.90
16140;DHT22;8175;49.326;12.690;2023-04-25T00:05:58;4.90;99.90
16140;DHT22;8175;49.326;12.690;2023-04-25T00:08:28;4.80;99.90
16140;DHT22;8175;49.326;12.690;2023-04-25T00:10:54;4.70;99.90
16140;DHT22;8175;49.326;12.690;2023-04-25T00:13:19;4.70;99.90
16140;DHT22;8175;49.326;12.690;2023-04-25T00:15:45;4.60;99.90
16140;DHT22;8175;49.326;12.690;2023-04-25T00:18:11;4.60;99.90
16140;DHT22;8175;49.326;12.690;2023-04-25T00:20:37;4.60;99.90
16140;DHT22;8175;49.326;12.690;2023-04-25T00:23:03;4.70;99.90
16140;DHT22;8175;49.326;12.690;2023-04-25T00:25:28;4.90;99.90
16140;DHT22;8175;49.326;12.690;2023-04-25T00:27:55;5.20;99.90
16140;DHT22;8175;49.326;12.690;2023-04-25T00:30:20;5.30;99.90
16140;DHT22;8175;49.326;12.690;2023-04-25T00:32:46;5.40;99.90
16140;DHT22;8175;49.326;12.690;2023-04-25T00:35:11;5.40;99.90
16140;DHT22;8175;49.326;12.690;2023-04-25T00:37:37;5.40;99.90
16140;DHT22;8175;49.326;12.690;2023-04-25T00:40:05;5.50;99.90
16140;DHT22;8175;49.326;12.690;2023-04-25T00:42:31;5.50;99.90
16140;DHT22;8175;49.326;12.690;2023-04-25T00:44:58;5.60;99.90
16140;DHT22;8175;49.326;12.690;2023-04-25T00:47:25;5.70;99.90
16140;DHT22;8175;49.326;12.690;2023-04-25T00:49:50;5.80;99.90
16140;DHT22;8175;49.326;12.690;2023-04-25T00:52:16;5.80;99.90
16140;DHT22;8175;49.326;12.690;2023-04-25T00:54:42;5.80;99.90
16140;DHT22;8175;49.326;12.690;2023-04-25T00:57:08;5.90;99.90
16140;DHT22;8175;49.326;12.690;2023-04-25T00:59:35;6.00;99.90
16140;DHT22;8175;49.326;12.690;2023-04-25T01:02:01;6.00;99.90
16140;DHT22;8175;49.326;12.690;2023-04-25T01:04:27;6.00;99.90
16140;DHT22;8175;49.326;12.690;2023-04-25T01:06:54;6.10;99.90
16140;DHT22;8175;49.326;12.690;2023-04-25T01:09:20;6.00;99.90
16140;DHT22;8175;49.326;12.690;2023-04-25T01:11:46;6.00;99.90
16140;DHT22;8175;49.326;12.690;2023-04-25T01:14:11;5.90;99.90
16140;DHT22;8175;49.326;12.690;2023-04-25T01:16:37;5.70;99.90
16140;DHT22;8175;49.326;12.690;2023-04-25T01:19:09;5.70;99.90
16140;DHT22;8175;49.326;12.690;2023-04-25T01:21:36;5.60;99.90
16140;DHT22;8175;49.326;12.690;2023-04-25T01:24:02;5.60;99.90
16140;DHT22;8175;49.326;12.690;2023-04-25T01:26:28;5.60;99.90
16140;DHT22;8175;49.326;12.690;2023-04-25T01:28:54;5.70;99.90
16140;DHT22;8175;49.326;12.690;2023-04-25T01:31:20;5.80;99.90
16140;DHT22;8175;49.326;12.690;2023-04-25T01:33:47;6.00;99.90
16140;DHT22;8175;49.326;12.690;2023-04-25T01:36:13;6.10;99.90
16140;DHT22;8175;49.326;12.690;2023-04-25T01:38:39;6.20;99.90
16140;DHT22;8175;49.326;12.690;2023-04-25T01:41:05;6.20;99.90
16140;DHT22;8175;49.326;12.690;2023-04-25T01:43:31;6.20;99.90
16140;DHT22;8175;49.326;12.690;2023-04-25T01:45:57;6.20;99.90
16140;DHT22;8175;49.326;12.690;2023-04-25T01:48:23;6.10;99.90
16140;DHT22;8175;49.326;12.690;2023-04-25T01:50:48;6.10;99.90
16140;DHT22;8175;49.326;12.690;2023-04-25T04:43:56;6.30;99.90
16140;DHT22;8175;49.326;12.690;2023-04-25T04:46:22;6.30;99.90
16140;DHT22;8175;49.326;12.690;2023-04-25T04:48:49;6.40;99.90
16140;DHT22;8175;49.326;12.690;2023-04-25T04:51:15;6.50;99.90
16140;DHT22;8175;49.326;12.690;2023-04-25T04:53:41;6.60;99.90
16140;DHT22;8175;49.326;12.690;2023-04-25T04:56:06;6.70;99.90
16140;DHT22;8175;49.326;12.690;2023-04-25T04:58:32;6.70;99.90
16140;DHT22;8175;49.326;12.690;2023-04-25T05:00:58;6.70;99.90
16140;DHT22;8175;49.326;12.690;2023-04-25T05:03:24;6.70;99.90
16140;DHT22;8175;49.326;12.690;2023-04-25T05:05:49;6.50;99.90
16140;DHT22;8175;49.326;12.690;2023-04-25T05:08:15;6.50;99.90
16140;DHT22;8175;49.326;12.690;2023-04-25T05:10:41;6.40;99.90
16140;DHT22;8175;49.326;12.690;2023-04-25T05:13:07;6.50;99.90
16140;DHT22;8175;49.326;12.690;2023-04-25T05:15:32;6.50;99.90
16140;DHT22;8175;49.326;12.690;2023-04-25T05:17:58;6.50;99.90
16140;DHT22;8175;49.326;12.690;2023-04-25T05:20:24;6.60;99.90
16140;DHT22;8175;49.326;12.690;2023-04-25T05:22:49;6.70;99.90
16140;DHT22;8175;49.326;12.690;2023-04-25T05:25:15;6.60;99.90
16140;DHT22;8175;49.326;12.690;2023-04-25T05:27:41;6.70;99.90
16140;DHT22;8175;49.326;12.690;2023-04-25T05:30:07;6.70;99.90
16140;DHT22;8175;49.326;12.690;2023-04-25T05:32:33;6.80;99.90
16140;DHT22;8175;49.326;12.690;2023-04-25T05:34:59;6.90;99.90
16140;DHT22;8175;49.326;12.690;2023-04-25T05:37:25;7.00;99.90
16140;DHT22;8175;49.326;12.690;2023-04-25T05:39:50;7.10;99.90
16140;DHT22;8175;49.326;12.690;2023-04-25T05:42:16;7.20;99.90
16140;DHT22;8175;49.326;12.690;2023-04-25T05:44:42;7.40;99.90
16140;DHT22;8175;49.326;12.690;2023-04-25T05:47:07;7.60;99.90
16140;DHT22;8175;49.326;12.690;2023-04-25T05:49:34;7.80;99.90
16140;DHT22;8175;49.326;12.690;2023-04-25T05:52:00;7.80;99.90
16140;DHT22;8175;49.326;12.690;2023-04-25T05:54:25;7.90;99.90
16140;DHT22;8175;49.326;12.690;2023-04-25T05:56:51;7.90;99.90
16140;DHT22;8175;49.326;12.690;2023-04-25T05:59:17;8.10;99.90
16140;DHT22;8175;49.326;12.690;2023-04-25T06:01:42;8.10;99.90
16140;DHT22;8175;49.326;12.690;2023-04-25T06:04:08;8.10;99.90
16140;DHT22;8175;49.326;12.690;2023-04-25T06:06:33;8.00;99.90
16140;DHT22;8175;49.326;12.690;2023-04-25T06:08:59;7.90;99.90
16140;DHT22;8175;49.326;12.690;2023-04-25T06:11:25;8.00;99.90
16140;DHT22;8175;49.326;12.690;2023-04-25T06:13:51;8.30;99.90
16140;DHT22;8175;49.326;12.690;2023-04-25T06:16:17;8.40;99.90
16140;DHT22;8175;49.326;12.690;2023-04-25T06:18:42;8.20;99.90
16140;DHT22;8175;49.326;12.690;2023-04-25T06:21:08;8.10;99.90
16140;DHT22;8175;49.326;12.690;2023-04-25T06:23:33;8.20;99.90
16140;DHT22;8175;49.326;12.690;2023-04-25T06:25:59;8.20;99.90
16140;DHT22;8175;49.326;12.690;2023-04-25T06:28:25;8.30;99.90
16140;DHT22;8175;49.326;12.690;2023-04-25T06:30:51;8.30;99.90
16140;DHT22;8175;49.326;12.690;2023-04-25T06:33:16;8.30;99.90
16140;DHT22;8175;49.326;12.690;2023-04-25T06:35:42;8.20;99.90
16140;DHT22;8175;49.326;12.690;2023-04-25T06:38:08;8.30;99.90
16140;DHT22;8175;49.326;12.690;2023-04-25T06:40:34;8.40;99.90
16140;DHT22;8175;49.326;12.690;2023-04-25T06:42:59;8.50;99.90
16140;DHT22;8175;49.326;12.690;2023-04-25T06:45:25;8.50;99.90
16140;DHT22;8175;49.326;12.690;2023-04-25T06:47:51;8.60;99.90
16140;DHT22;8175;49.326;12.690;2023-04-25T06:50:16;8.70;99.90
16140;DHT22;8175;49.326;12.690;2023-04-25T06:52:42;8.80;99.90
16140;DHT22;8175;49.326;12.690;2023-04-25T06:55:08;8.80;99.90
16140;DHT22;8175;49.326;12.690;2023-04-25T06:57:34;9.00;99.90
16140;DHT22;8175;49.326;12.690;2023-04-25T06:59:59;9.10;99.90
16140;DHT22;8175;49.326;12.690;2023-04-25T07:02:25;9.20;99.90
16140;DHT22;8175;49.326;12.690;2023-04-25T07:04:51;9.30;99.90
16140;DHT22;8175;49.326;12.690;2023-04-25T07:07:16;9.20;99.90
16140;DHT22;8175;49.326;12.690;2023-04-25T07:09:42;9.00;99.90
16140;DHT22;8175;49.326;12.690;2023-04-25T07:12:08;8.80;99.90
16140;DHT22;8175;49.326;12.690;2023-04-25T07:14:33;8.90;99.90
16140;DHT22;8175;49.326;12.690;2023-04-25T07:16:59;8.90;99.90
16140;DHT22;8175;49.326;12.690;2023-04-25T07:19:25;8.80;99.90
16140;DHT22;8175;49.326;12.690;2023-04-25T07:21:52;8.80;99.90
16140;DHT22;8175;49.326;12.690;2023-04-25T07:24:18;8.60;99.90
16140;DHT22;8175;49.326;12.690;2023-04-25T07:26:43;8.40;99.90
16140;DHT22;8175;49.326;12.690;2023-04-25T07:29:10;8.30;99.90
16140;DHT22;8175;49.326;12.690;2023-04-25T07:31:35;8.10;99.90
16140;DHT22;8175;49.326;12.690;2023-04-25T07:34:01;8.10;99.90
16140;DHT22;8175;49.326;12.690;2023-04-25T07:36:27;8.10;99.90
16140;DHT22;8175;49.326;12.690;2023-04-25T07:38:53;8.10;99.90
16140;DHT22;8175;49.326;12.690;2023-04-25T07:41:18;8.10;99.90
16140;DHT22;8175;49.326;12.690;2023-04-25T07:43:44;8.00;99.90
16140;DHT22;8175;49.326;12.690;2023-04-25T07:46:10;7.80;99.90
16140;DHT22;8175;49.326;12.690;2023-04-25T07:48:36;7.80;99.90
16140;DHT22;8175;49.326;12.690;2023-04-25T07:51:01;7.80;99.90
16140;DHT22;8175;49.326;12.690;2023-04-25T07:53:28;7.70;99.90
16140;DHT22;8175;49.326;12.690;2023-04-25T07:55:53;7.60;99.90
16140;DHT22;8175;49.326;12.690;2023-04-25T07:58:19;7.50;99.90
16140;DHT22;8175;49.326;12.690;2023-04-25T08:00:47;7.50;99.90
16140;DHT22;8175;49.326;12.690;2023-04-25T08:03:13;7.40;99.90
16140;DHT22;8175;49.326;12.690;2023-04-25T08:05:39;7.20;99.90
16140;DHT22;8175;49.326;12.690;2023-04-25T08:08:05;7.00;99.90
16140;DHT22;8175;49.326;12.690;2023-04-25T08:10:32;6.90;99.90
16140;DHT22;8175;49.326;12.690;2023-04-25T08:12:58;7.00;99.90
16140;DHT22;8175;49.326;12.690;2023-04-25T08:15:24;7.20;99.90
16140;DHT22;8175;49.326;12.690;2023-04-25T08:17:50;7.20;99.90
16140;DHT22;8175;49.326;12.690;2023-04-25T08:20:16;7.40;99.90
16140;DHT22;8175;49.326;12.690;2023-04-25T08:22:42;7.70;99.90
16140;DHT22;8175;49.326;12.690;2023-04-25T08:25:08;7.90;99.90
16140;DHT22;8175;49.326;12.690;2023-04-25T08:27:33;7.90;99.90
16140;DHT22;8175;49.326;12.690;2023-04-25T08:29:59;7.90;99.90
16140;DHT22;8175;49.326;12.690;2023-04-25T08:32:25;7.90;99.90
16140;DHT22;8175;49.326;12.690;2023-04-25T08:34:51;7.90;99.90
16140;DHT22;8175;49.326;12.690;2023-04-25T08:37:19;8.00;99.90
16140;DHT22;8175;49.326;12.690;2023-04-25T08:39:45;8.10;99.90
16140;DHT22;8175;49.326;12.690;2023-04-25T08:42:15;8.20;99.90
16140;DHT22;8175;49.326;12.690;2023-04-25T08:44:40;8.40;99.90
16140;DHT22;8175;49.326;12.690;2023-04-25T08:47:06;8.50;99.90
16140;DHT22;8175;49.326;12.690;2023-04-25T08:49:33;8.70;99.90
16140;DHT22;8175;49.326;12.690;2023-04-25T08:52:00;8.90;99.90
16140;DHT22;8175;49.326;12.690;2023-04-25T08:54:27;9.30;99.90
16140;DHT22;8175;49.326;12.690;2023-04-25T08:56:54;9.10;99.90
16140;DHT22;8175;49.326;12.690;2023-04-25T08:59:22;8.80;99.90
16140;DHT22;8175;49.326;12.690;2023-04-25T09:01:49;8.50;99.90
16140;DHT22;8175;49.326;12.690;2023-04-25T09:04:15;8.40;99.90
16140;DHT22;8175;49.326;12.690;2023-04-25T09:06:41;8.30;99.90
16140;DHT22;8175;49.326;12.690;2023-04-25T09:09:08;8.10;99.90
16140;DHT22;8175;49.326;12.690;2023-04-25T09:11:36;8.10;99.90
16140;DHT22;8175;49.326;12.690;2023-04-25T09:14:19;8.30;99.90
16140;DHT22;8175;49.326;12.690;2023-04-25T09:19:24;10.40;99.90
16140;DHT22;8175;49.326;12.690;2023-04-25T09:21:50;11.50;99.90
16140;DHT22;8175;49.326;12.690;2023-04-25T09:24:19;11.60;99.90
16140;DHT22;8175;49.326;12.690;2023-04-25T09:26:55;11.80;99.90
16140;DHT22;8175;49.326;12.690;2023-04-25T09:29:29;11.40;99.90
16140;DHT22;8175;49.326;12.690;2023-04-25T09:34:44;8.70;99.90
16140;DHT22;8175;49.326;12.690;2023-04-25T09:37:11;8.60;99.90
16140;DHT22;8175;49.326;12.690;2023-04-25T09:39:38;8.70;99.90
16140;DHT22;8175;49.326;12.690;2023-04-25T09:42:04;9.00;99.90
16140;DHT22;8175;49.326;12.690;2023-04-25T09:44:30;8.60;99.90
16140;DHT22;8175;49.326;12.690;2023-04-25T09:46:56;8.50;99.90
16140;DHT22;8175;49.326;12.690;2023-04-25T09:49:23;8.40;99.90
16140;DHT22;8175;49.326;12.690;2023-04-25T09:51:58;8.30;99.90
16140;DHT22;8175;49.326;12.690;2023-04-25T09:54:25;8.10;99.90
16140;DHT22;8175;49.326;12.690;2023-04-25T09:56:52;8.30;99.90
16140;DHT22;8175;49.326;12.690;2023-04-25T09:59:22;8.50;99.90
16140;DHT22;8175;49.326;12.690;2023-04-25T10:01:52;8.80;99.90
16140;DHT22;8175;49.326;12.690;2023-04-25T10:04:24;9.30;99.90
16140;DHT22;8175;49.326;12.690;2023-04-25T10:06:53;10.70;99.90
16140;DHT22;8175;49.326;12.690;2023-04-25T10:09:21;11.40;99.90
16140;DHT22;8175;49.326;12.690;2023-04-25T10:11:50;11.80;99.90
16140;DHT22;8175;49.326;12.690;2023-04-25T10:14:16;11.80;99.90
16140;DHT22;8175;49.326;12.690;2023-04-25T10:16:42;10.90;99.90
16140;DHT22;8175;49.326;12.690;2023-04-25T10:19:09;10.20;99.90
16140;DHT22;8175;49.326;12.690;2023-04-25T10:21:44;9.90;99.90
16140;DHT22;8175;49.326;12.690;2023-04-25T10:24:12;9.50;99.90
16140;DHT22;8175;49.326;12.690;2023-04-25T10:26:38;9.70;99.90
16140;DHT22;8175;49.326;12.690;2023-04-25T10:29:04;9.60;99.90
16140;DHT22;8175;49.326;12.690;2023-04-25T10:31:30;9.50;99.90
16140;DHT22;8175;49.326;12.690;2023-04-25T10:33:57;9.90;99.90
16140;DHT22;8175;49.326;12.690;2023-04-25T10:36:23;10.50;99.90
16140;DHT22;8175;49.326;12.690;2023-04-25T10:38:50;10.90;99.90
16140;DHT22;8175;49.326;12.690;2023-04-25T10:41:18;10.50;99.90
16140;DHT22;8175;49.326;12.690;2023-04-25T10:43:45;10.10;99.90
16140;DHT22;8175;49.326;12.690;2023-04-25T10:48:49;10.90;99.90
16140;DHT22;8175;49.326;12.690;2023-04-25T10:51:24;11.10;99.90
16140;DHT22;8175;49.326;12.690;2023-04-25T10:54:03;12.40;99.90
16140;DHT22;8175;49.326;12.690;2023-04-25T10:56:40;13.60;99.90
16140;DHT22;8175;49.326;12.690;2023-04-25T10:59:19;14.30;99.90
16140;DHT22;8175;49.326;12.690;2023-04-25T11:01:47;14.40;99.90
16140;DHT22;8175;49.326;12.690;2023-04-25T11:04:31;15.00;99.90
16140;DHT22;8175;49.326;12.690;2023-04-25T11:07:22;14.70;99.90
16140;DHT22;8175;49.326;12.690;2023-04-25T11:09:49;15.30;99.90
16140;DHT22;8175;49.326;12.690;2023-04-25T11:12:15;16.50;99.90
16140;DHT22;8175;49.326;12.690;2023-04-25T11:14:42;16.30;99.90
16140;DHT22;8175;49.326;12.690;2023-04-25T11:17:08;13.70;99.90
16140;DHT22;8175;49.326;12.690;2023-04-25T11:19:34;11.50;99.90
16140;DHT22;8175;49.326;12.690;2023-04-25T11:22:01;10.90;99.90
16140;DHT22;8175;49.326;12.690;2023-04-25T11:26:53;10.70;99.90
16140;DHT22;8175;49.326;12.690;2023-04-25T11:29:31;10.20;99.90
16140;DHT22;8175;49.326;12.690;2023-04-25T11:31:57;9.90;99.90
16140;DHT22;8175;49.326;12.690;2023-04-25T11:34:24;9.80;99.90
16140;DHT22;8175;49.326;12.690;2023-04-25T11:36:51;9.70;99.90
16140;DHT22;8175;49.326;12.690;2023-04-25T11:39:21;9.80;99.90
16140;DHT22;8175;49.326;12.690;2023-04-25T11:41:47;9.90;99.90
16140;DHT22;8175;49.326;12.690;2023-04-25T11:44:16;10.10;99.90
16140;DHT22;8175;49.326;12.690;2023-04-25T11:46:42;10.00;99.90
16140;DHT22;8175;49.326;12.690;2023-04-25T11:49:08;10.20;99.90
16140;DHT22;8175;49.326;12.690;2023-04-25T11:51:44;11.20;99.90
16140;DHT22;8175;49.326;12.690;2023-04-25T11:54:10;11.40;99.90
16140;DHT22;8175;49.326;12.690;2023-04-25T11:56:37;11.80;99.90
16140;DHT22;8175;49.326;12.690;2023-04-25T11:59:05;12.00;99.90
16140;DHT22;8175;49.326;12.690;2023-04-25T12:01:31;13.50;99.90
16140;DHT22;8175;49.326;12.690;2023-04-25T12:03:58;14.30;99.90
16140;DHT22;8175;49.326;12.690;2023-04-25T12:06:29;13.70;99.90
16140;DHT22;8175;49.326;12.690;2023-04-25T12:09:07;13.80;99.90
16140;DHT22;8175;49.326;12.690;2023-04-25T12:11:41;12.80;99.90
16140;DHT22;8175;49.326;12.690;2023-04-25T12:14:08;12.00;99.90
16140;DHT22;8175;49.326;12.690;2023-04-25T12:16:45;11.30;99.90
16140;DHT22;8175;49.326;12.690;2023-04-25T12:19:14;10.60;99.90
16140;DHT22;8175;49.326;12.690;2023-04-25T12:21:40;10.30;99.90
16140;DHT22;8175;49.326;12.690;2023-04-25T12:24:13;10.30;99.90
16140;DHT22;8175;49.326;12.690;2023-04-25T12:29:25;11.10;99.90
16140;DHT22;8175;49.326;12.690;2023-04-25T12:31:53;11.20;99.90
16140;DHT22;8175;49.326;12.690;2023-04-25T12:34:22;10.60;99.90
16140;DHT22;8175;49.326;12.690;2023-04-25T12:36:49;10.20;99.90
16140;DHT22;8175;49.326;12.690;2023-04-25T12:39:20;9.80;99.90
16140;DHT22;8175;49.326;12.690;2023-04-25T12:41:47;9.40;99.90
16140;DHT22;8175;49.326;12.690;2023-04-25T12:44:13;9.40;99.90
16140;DHT22;8175;49.326;12.690;2023-04-25T12:46:39;9.40;99.90
16140;DHT22;8175;49.326;12.690;2023-04-25T12:49:06;10.30;99.90
16140;DHT22;8175;49.326;12.690;2023-04-25T12:51:36;11.20;99.90
16140;DHT22;8175;49.326;12.690;2023-04-25T12:54:03;12.80;99.90
16140;DHT22;8175;49.326;12.690;2023-04-25T12:56:30;14.30;99.90
16140;DHT22;8175;49.326;12.690;2023-04-25T12:58:55;13.40;99.90
16140;DHT22;8175;49.326;12.690;2023-04-25T13:01:21;12.30;99.90
16140;DHT22;8175;49.326;12.690;2023-04-25T13:03:47;11.60;99.90
16140;DHT22;8175;49.326;12.690;2023-04-25T13:06:14;12.90;99.90
16140;DHT22;8175;49.326;12.690;2023-04-25T13:08:40;14.70;99.90
16140;DHT22;8175;49.326;12.690;2023-04-25T13:11:07;16.20;99.90
16140;DHT22;8175;49.326;12.690;2023-04-25T13:13:32;14.90;99.90
16140;DHT22;8175;49.326;12.690;2023-04-25T13:16:00;13.70;99.90
16140;DHT22;8175;49.326;12.690;2023-04-25T13:18:27;12.10;99.90
16140;DHT22;8175;49.326;12.690;2023-04-25T13:20:53;10.90;99.90
16140;DHT22;8175;49.326;12.690;2023-04-25T13:23:19;10.30;99.90
16140;DHT22;8175;49.326;12.690;2023-04-25T13:25:46;9.90;99.90
16140;DHT22;8175;49.326;12.690;2023-04-25T13:28:12;10.00;99.90
16140;DHT22;8175;49.326;12.690;2023-04-25T13:30:39;10.00;99.90
16140;DHT22;8175;49.326;12.690;2023-04-25T13:33:05;10.00;99.90
16140;DHT22;8175;49.326;12.690;2023-04-25T13:35:33;10.20;99.90
16140;DHT22;8175;49.326;12.690;2023-04-25T13:37:59;10.30;99.90
16140;DHT22;8175;49.326;12.690;2023-04-25T13:40:25;10.50;99.90
16140;DHT22;8175;49.326;12.690;2023-04-25T13:42:52;10.50;99.90
16140;DHT22;8175;49.326;12.690;2023-04-25T13:45:18;10.30;99.90
16140;DHT22;8175;49.326;12.690;2023-04-25T13:47:44;10.30;99.90
16140;DHT22;8175;49.326;12.690;2023-04-25T13:50:09;10.20;99.90
16140;DHT22;8175;49.326;12.690;2023-04-25T13:52:35;10.00;99.90
16140;DHT22;8175;49.326;12.690;2023-04-25T13:55:01;9.70;99.90
16140;DHT22;8175;49.326;12.690;2023-04-25T13:57:32;9.40;99.90
16140;DHT22;8175;49.326;12.690;2023-04-25T13:59:58;9.30;99.90
16140;DHT22;8175;49.326;12.690;2023-04-25T14:02:25;9.30;99.90
16140;DHT22;8175;49.326;12.690;2023-04-25T14:04:51;9.60;99.90
16140;DHT22;8175;49.326;12.690;2023-04-25T14:07:16;9.90;99.90
16140;DHT22;8175;49.326;12.690;2023-04-25T14:09:43;10.40;99.90
16140;DHT22;8175;49.326;12.690;2023-04-25T14:12:09;11.00;99.90
16140;DHT22;8175;49.326;12.690;2023-04-25T14:14:36;11.80;99.90
16140;DHT22;8175;49.326;12.690;2023-04-25T14:17:03;11.50;99.90
16140;DHT22;8175;49.326;12.690;2023-04-25T14:19:28;10.70;99.90
16140;DHT22;8175;49.326;12.690;2023-04-25T14:21:54;10.40;99.90
16140;DHT22;8175;49.326;12.690;2023-04-25T14:24:20;10.30;99.90
16140;DHT22;8175;49.326;12.690;2023-04-25T14:26:46;10.10;99.90
16140;DHT22;8175;49.326;12.690;2023-04-25T14:29:12;10.20;99.90
16140;DHT22;8175;49.326;12.690;2023-04-25T14:31:39;10.60;99.90
16140;DHT22;8175;49.326;12.690;2023-04-25T14:34:06;10.80;99.90
16140;DHT22;8175;49.326;12.690;2023-04-25T14:36:33;10.90;99.90
16140;DHT22;8175;49.326;12.690;2023-04-25T14:38:59;10.60;99.90
16140;DHT22;8175;49.326;12.690;2023-04-25T14:41:25;10.40;99.90
16140;DHT22;8175;49.326;12.690;2023-04-25T14:43:52;11.10;99.90
16140;DHT22;8175;49.326;12.690;2023-04-25T14:46:22;11.90;99.90
16140;DHT22;8175;49.326;12.690;2023-04-25T14:48:48;12.30;99.90
16140;DHT22;8175;49.326;12.690;2023-04-25T14:51:14;12.30;99.90
16140;DHT22;8175;49.326;12.690;2023-04-25T14:53:41;12.80;99.90
16140;DHT22;8175;49.326;12.690;2023-04-25T14:56:06;12.50;99.90
16140;DHT22;8175;49.326;12.690;2023-04-25T14:58:33;12.20;99.90
16140;DHT22;8175;49.326;12.690;2023-04-25T15:00:59;12.60;99.90
16140;DHT22;8175;49.326;12.690;2023-04-25T15:03:24;13.30;99.90
16140;DHT22;8175;49.326;12.690;2023-04-25T15:05:50;13.70;98.70
16140;DHT22;8175;49.326;12.690;2023-04-25T15:08:16;12.70;96.60
16140;DHT22;8175;49.326;12.690;2023-04-25T15:10:41;11.70;98.40
16140;DHT22;8175;49.326;12.690;2023-04-25T15:13:07;11.00;99.70
16140;DHT22;8175;49.326;12.690;2023-04-25T15:15:33;11.00;97.90
16140;DHT22;8175;49.326;12.690;2023-04-25T15:17:58;11.40;99.20
16140;DHT22;8175;49.326;12.690;2023-04-25T15:20:25;11.80;98.90
16140;DHT22;8175;49.326;12.690;2023-04-25T15:22:52;11.80;97.20
16140;DHT22;8175;49.326;12.690;2023-04-25T15:25:17;11.80;99.70
16140;DHT22;8175;49.326;12.690;2023-04-25T15:27:43;11.40;97.90
16140;DHT22;8175;49.326;12.690;2023-04-25T15:30:11;11.40;98.60
16140;DHT22;8175;49.326;12.690;2023-04-25T15:32:39;10.90;99.20
16140;DHT22;8175;49.326;12.690;2023-04-25T15:35:05;10.70;99.90
16140;DHT22;8175;49.326;12.690;2023-04-25T15:37:35;10.20;98.50
16140;DHT22;8175;49.326;12.690;2023-04-25T15:40:13;9.90;99.90
16140;DHT22;8175;49.326;12.690;2023-04-25T15:42:40;9.80;99.90
16140;DHT22;8175;49.326;12.690;2023-04-25T15:45:08;9.90;99.90
16140;DHT22;8175;49.326;12.690;2023-04-25T15:47:34;10.50;99.90
16140;DHT22;8175;49.326;12.690;2023-04-25T15:50:01;10.60;99.90
16140;DHT22;8175;49.326;12.690;2023-04-25T15:52:27;10.40;99.90
16140;DHT22;8175;49.326;12.690;2023-04-25T15:54:53;10.30;99.90
16140;DHT22;8175;49.326;12.690;2023-04-25T15:57:19;10.10;99.90
16140;DHT22;8175;49.326;12.690;2023-04-25T15:59:45;9.90;99.90
16140;DHT22;8175;49.326;12.690;2023-04-25T16:02:12;9.50;99.90
16140;DHT22;8175;49.326;12.690;2023-04-25T16:04:38;9.40;99.90
16140;DHT22;8175;49.326;12.690;2023-04-25T16:07:03;9.30;99.90
16140;DHT22;8175;49.326;12.690;2023-04-25T16:09:30;9.30;99.90
16140;DHT22;8175;49.326;12.690;2023-04-25T16:11:56;9.40;99.90
16140;DHT22;8175;49.326;12.690;2023-04-25T16:14:22;9.50;99.90
16140;DHT22;8175;49.326;12.690;2023-04-25T16:16:48;9.40;99.90
16140;DHT22;8175;49.326;12.690;2023-04-25T16:19:14;9.30;99.90
16140;DHT22;8175;49.326;12.690;2023-04-25T16:21:39;9.20;99.90
16140;DHT22;8175;49.326;12.690;2023-04-25T16:24:05;9.10;99.90
16140;DHT22;8175;49.326;12.690;2023-04-25T16:26:32;8.90;99.90
16140;DHT22;8175;49.326;12.690;2023-04-25T16:28:57;8.90;99.90
16140;DHT22;8175;49.326;12.690;2023-04-25T16:31:23;8.80;99.90
16140;DHT22;8175;49.326;12.690;2023-04-25T16:33:48;8.70;99.90
16140;DHT22;8175;49.326;12.690;2023-04-25T16:36:14;8.70;99.90
16140;DHT22;8175;49.326;12.690;2023-04-25T16:38:40;8.70;99.90
16140;DHT22;8175;49.326;12.690;2023-04-25T16:41:06;8.60;99.90
16140;DHT22;8175;49.326;12.690;2023-04-25T16:43:32;8.50;99.90
16140;DHT22;8175;49.326;12.690;2023-04-25T16:45:58;8.40;99.90
16140;DHT22;8175;49.326;12.690;2023-04-25T16:48:24;8.40;99.90
16140;DHT22;8175;49.326;12.690;2023-04-25T16:50:51;8.40;99.90
16140;DHT22;8175;49.326;12.690;2023-04-25T16:53:17;8.40;99.90
16140;DHT22;8175;49.326;12.690;2023-04-25T16:55:43;8.40;99.90
16140;DHT22;8175;49.326;12.690;2023-04-25T16:58:09;8.40;99.90
16140;DHT22;8175;49.326;12.690;2023-04-25T17:00:39;8.40;99.90
16140;DHT22;8175;49.326;12.690;2023-04-25T17:03:04;8.30;99.90
16140;DHT22;8175;49.326;12.690;2023-04-25T17:05:30;8.40;99.90
16140;DHT22;8175;49.326;12.690;2023-04-25T17:07:56;8.30;99.90
16140;DHT22;8175;49.326;12.690;2023-04-25T17:10:22;8.30;99.90
16140;DHT22;8175;49.326;12.690;2023-04-25T17:12:48;8.20;99.90
16140;DHT22;8175;49.326;12.690;2023-04-25T17:15:14;8.10;99.90
16140;DHT22;8175;49.326;12.690;2023-04-25T17:17:40;8.10;99.90
16140;DHT22;8175;49.326;12.690;2023-04-25T17:20:06;8.00;99.90
16140;DHT22;8175;49.326;12.690;2023-04-25T17:22:34;8.00;99.90
16140;DHT22;8175;49.326;12.690;2023-04-25T17:25:04;8.00;99.90
16140;DHT22;8175;49.326;12.690;2023-04-25T17:27:30;7.90;99.90
16140;DHT22;8175;49.326;12.690;2023-04-25T17:29:56;7.90;99.90
16140;DHT22;8175;49.326;12.690;2023-04-25T17:32:22;7.90;99.90
16140;DHT22;8175;49.326;12.690;2023-04-25T17:34:47;7.80;99.90
16140;DHT22;8175;49.326;12.690;2023-04-25T17:37:14;7.70;99.90
16140;DHT22;8175;49.326;12.690;2023-04-25T17:39:44;7.70;99.90
16140;DHT22;8175;49.326;12.690;2023-04-25T17:42:11;7.60;99.90
16140;DHT22;8175;49.326;12.690;2023-04-25T17:44:41;7.50;99.90
16140;DHT22;8175;49.326;12.690;2023-04-25T17:47:07;7.50;99.90
16140;DHT22;8175;49.326;12.690;2023-04-25T17:49:34;7.40;99.90
16140;DHT22;8175;49.326;12.690;2023-04-25T17:52:00;7.40;99.90
16140;DHT22;8175;49.326;12.690;2023-04-25T17:54:26;7.30;99.90
16140;DHT22;8175;49.326;12.690;2023-04-25T17:56:52;7.30;99.90
16140;DHT22;8175;49.326;12.690;2023-04-25T17:59:19;7.20;99.90
16140;DHT22;8175;49.326;12.690;2023-04-25T18:01:45;7.30;99.90
16140;DHT22;8175;49.326;12.690;2023-04-25T18:04:11;7.30;99.90
16140;DHT22;8175;49.326;12.690;2023-04-25T18:06:36;7.30;99.90
16140;DHT22;8175;49.326;12.690;2023-04-25T18:09:03;7.30;99.90
16140;DHT22;8175;49.326;12.690;2023-04-25T18:11:41;7.30;99.90
16140;DHT22;8175;49.326;12.690;2023-04-25T18:14:07;7.30;99.90
16140;DHT22;8175;49.326;12.690;2023-04-25T18:16:41;7.20;99.90
16140;DHT22;8175;49.326;12.690;2023-04-25T18:19:07;7.20;99.90
16140;DHT22;8175;49.326;12.690;2023-04-25T18:21:40;7.10;99.90
16140;DHT22;8175;49.326;12.690;2023-04-25T18:24:06;7.00;99.90
16140;DHT22;8175;49.326;12.690;2023-04-25T18:26:34;7.00;99.90
16140;DHT22;8175;49.326;12.690;2023-04-25T18:29:00;7.00;99.90
16140;DHT22;8175;49.326;12.690;2023-04-25T18:31:26;7.00;99.90
16140;DHT22;8175;49.326;12.690;2023-04-25T18:33:51;6.90;99.90
16140;DHT22;8175;49.326;12.690;2023-04-25T18:36:17;6.90;99.90
16140;DHT22;8175;49.326;12.690;2023-04-25T18:38:43;6.80;99.90
16140;DHT22;8175;49.326;12.690;2023-04-25T18:41:09;6.70;99.90
16140;DHT22;8175;49.326;12.690;2023-04-25T18:43:35;6.60;99.90